Flight Track Log - Related Links

Times and Time Zones

All times are in EDT time to prevent confusion due to time zone crossing. See the EJA863 flight status page for this flight to view local times or setup timezone preferences in your user account.

Time Position Orientation Groundspeed Altitude Reporting Facility
EDT Latitude Longitude Course Direction KTS MPH feet Rate Location/Type
Sun 08:17:27 AM 39.6833 -75.6167 247° West 159 183 500  Level Philadelphia TRACON
Sun 08:18:15 AM 39.6667 -75.6667 297° West 191 220 2,900 2,778 Climbing Philadelphia TRACON
Sun 08:18:18 AM 39.6675 -75.6739 299° West 17,000 2,600 Climbing New York Center
Sun 08:19:15 AM 39.6942 -75.7378 39° Northeast 271 312 5,500 -5,590 Descending New York Center
Sun 08:20:15 AM 39.7464 -75.6822 50° Northeast 282 325 6,100 1,450 Climbing New York Center
Sun 08:21:15 AM 39.8000 -75.6000 198° South 266 306 8,400 2,164 Climbing Philadelphia TRACON
Sun 08:21:16 AM 39.7956 -75.6019 36° Northeast 268 308 8,300 2,656 Descending New York Center
Sun 08:22:16 AM 39.8542 -75.5464 North 284 327 11,100 1,835 Climbing New York Center
Sun 08:23:17 AM 39.9419 -75.5414 356° North 290 334 12,000 893 Climbing New York Center
Sun 08:24:17 AM 40.0417 -75.5511 356° North 343 395 12,900 500 Climbing New York Center
Sun 08:25:17 AM 40.1433 -75.5608 342° North 362 417 13,000 50 Climbing New York Center
Sun 08:26:17 AM 40.2397 -75.6028 326° Northwest 363 418 13,000  Level New York Center
Sun 08:27:18 AM 40.3219 -75.6767 328° Northwest 361 415 13,000 -149 Level New York Center
Sun 08:28:18 AM 40.4108 -75.7483 342° North 372 428 12,700 -915 Descending New York Center
Sun 08:29:16 AM 40.5131 -75.7911 North 382 440 11,200 -864 Descending New York Center
Sun 08:30:16 AM 40.6031 -75.7869 North 366 421 11,000 -1,082 Descending New York Center
Sun 08:31:18 AM 40.7014 -75.7750 North 359 413 9,000  Descending New York Center
Sun 08:32:15 AM 40.7933 -75.7706 North 345 397 11,000 1,043 Climbing New York Center
Sun 08:33:13 AM 40.8919 -75.7531 230° Southwest 345 397 11,000  Level New York Center
Sun 08:33:16 AM 40.8853 -75.7636 North 332 382 11,000  Level New York Center
Sun 08:34:16 AM 40.9753 -75.7539 North 332 382 11,000 -590 Level New York Center
Sun 08:35:18 AM 41.0633 -75.7383 23° Northeast 326 375 9,800 -1,462 Descending New York Center
Sun 08:36:15 AM 41.1361 -75.6967 21° North 302 348 8,100 -1,881 Descending New York Center
Sun 08:37:16 AM 41.2125 -75.6581 20° North 279 321 6,100 -1,240 Descending New York Center
Sun 08:38:16 AM 41.2783 -75.6269 33° Northeast 269 310 5,600 -1,041 Descending New York Center
Sun 08:39:17 AM 41.3411 -75.5736 30° Northeast 262 302 4,000 -793 Descending New York Center
Sun 08:40:17 AM 41.4075 -75.5231 357° North 262 302 4,000  Level New York Center
Sun 08:41:14 AM 41.4700 -75.5275 88° East 235 270 4,000  Level New York Center
Sun 08:41:17 AM 41.4703 -75.5164 285° West 262 302 4,000  Level New York Center
Sun 08:42:18 AM 41.4825 -75.5781 225° Southwest 150 173 4,000 -305 Level New York Center
Sun 08:43:15 AM 41.4472 -75.6256 216° Southwest 114 131 3,400 -769 Descending New York Center
Sun 08:44:15 AM 41.4125 -75.6589 215° Southwest 131 151 2,500 -850 Descending New York Center
Sun 08:45:15 AM 41.3800 -75.6897 215° Southwest 122 140 1,700 -800 Descending New York Center

Login

Don't have an account? Register now (free) for customized features, flight alerts, and more!